Time;durP1;ratioP1;P1;durP2;ratioP2;P2;SDS_P1;SDS_P2;PMS_P1;PMS_P2;Temp;Humidity;BMP_temperature;BMP_pressure;BME280_temperature;BME280_humidity;BME280_pressure;Samples;Min_cycle;Max_cycle;Signal;HPM_P1;HPM_P2
2022/09/20 00:01:19;;;;;;;;;;;8.60;99.90;;;;;;5012904;28;20520;-76
2022/09/20 00:03:46;;;;;;;;;;;8.60;99.90;;;;;;5012966;28;20047;-74
2022/09/20 00:06:15;;;;;;;;;;;8.90;99.90;;;;;;5012259;28;19925;-75
2022/09/20 00:08:41;;;;;;;;;;;8.60;99.90;;;;;;5012799;28;19925;-75
2022/09/20 00:11:08;;;;;;;;;;;8.50;99.90;;;;;;5012942;28;19925;-74
2022/09/20 00:13:34;;;;;;;;;;;8.50;99.90;;;;;;5012760;28;20389;-75
2022/09/20 00:16:03;;;;;;;;;;;8.50;99.90;;;;;;5013013;28;20059;-75
2022/09/20 00:18:28;;;;;;;;;;;8.40;99.90;;;;;;5012787;28;19984;-81
2022/09/20 00:20:54;;;;;;;;;;;8.40;99.90;;;;;;5012897;28;19976;-75
2022/09/20 00:23:19;;;;;;;;;;;8.40;99.90;;;;;;5011425;28;19983;-76
2022/09/20 00:25:52;;;;;;;;;;;8.40;99.90;;;;;;5012440;28;19936;-75
2022/09/20 00:28:18;;;;;;;;;;;8.30;99.90;;;;;;5012575;28;20707;-83
2022/09/20 00:30:43;;;;;;;;;;;8.30;99.90;;;;;;5012503;28;19932;-76
2022/09/20 00:33:10;;;;;;;;;;;8.30;99.90;;;;;;5012490;28;20360;-75
2022/09/20 00:35:36;;;;;;;;;;;8.20;99.90;;;;;;5012515;28;19976;-74
2022/09/20 00:38:01;;;;;;;;;;;8.20;99.90;;;;;;5012426;28;19929;-74
2022/09/20 00:40:27;;;;;;;;;;;8.20;99.90;;;;;;5011201;28;20305;-76
2022/09/20 00:42:52;;;;;;;;;;;8.10;99.90;;;;;;5012458;28;19921;-75
2022/09/20 00:45:22;;;;;;;;;;;8.20;99.90;;;;;;5011845;28;20300;-74
2022/09/20 00:47:59;;;;;;;;;;;8.10;99.90;;;;;;5012467;28;20012;-81
2022/09/20 00:50:37;;;;;;;;;;;8.10;99.90;;;;;;5012283;28;19968;-87
2022/09/20 00:53:06;;;;;;;;;;;8.10;99.90;;;;;;5012278;28;20020;-75
2022/09/20 00:55:35;;;;;;;;;;;8.10;99.90;;;;;;5011524;28;20396;-75
2022/09/20 00:58:01;;;;;;;;;;;8.00;99.90;;;;;;5012003;28;19925;-75
2022/09/20 01:00:27;;;;;;;;;;;8.00;99.90;;;;;;5010767;28;19928;-79
2022/09/20 01:02:56;;;;;;;;;;;8.30;99.90;;;;;;5012123;28;19929;-76
2022/09/20 01:05:21;;;;;;;;;;;8.00;99.90;;;;;;5011892;28;19968;-74
2022/09/20 01:07:49;;;;;;;;;;;8.00;99.90;;;;;;5011870;28;19929;-78
2022/09/20 01:10:14;;;;;;;;;;;8.00;99.90;;;;;;5011814;28;19921;-76
2022/09/20 01:12:41;;;;;;;;;;;7.90;99.90;;;;;;5010102;28;19926;-75
2022/09/20 01:15:08;;;;;;;;;;;7.90;99.90;;;;;;5011740;28;20380;-76
2022/09/20 01:17:34;;;;;;;;;;;7.90;99.90;;;;;;5011336;28;19926;-75
2022/09/20 01:20:09;;;;;;;;;;;8.00;99.90;;;;;;5011863;28;19922;-75
2022/09/20 01:22:51;;;;;;;;;;;7.90;99.90;;;;;;5013188;28;19921;-80
2022/09/20 01:25:27;;;;;;;;;;;7.90;99.90;;;;;;5012988;28;19921;-79
2022/09/20 01:27:52;;;;;;;;;;;8.20;99.90;;;;;;5012155;28;19932;-79
2022/09/20 01:30:19;;;;;;;;;;;7.90;99.90;;;;;;5011995;28;19925;-82
2022/09/20 01:32:51;;;;;;;;;;;7.90;99.90;;;;;;5011792;28;19925;-75
2022/09/20 01:35:18;;;;;;;;;;;7.90;99.90;;;;;;5011950;28;19921;-85
2022/09/20 01:37:59;;;;;;;;;;;7.80;99.90;;;;;;5010141;28;20004;-76
2022/09/20 01:40:27;;;;;;;;;;;7.90;99.90;;;;;;5011668;28;19975;-74
2022/09/20 01:43:16;;;;;;;;;;;7.90;99.90;;;;;;5010925;28;20401;-75
2022/09/20 01:45:45;;;;;;;;;;;7.80;99.90;;;;;;5003328;28;19972;-85
2022/09/20 01:48:26;;;;;;;;;;;7.80;99.90;;;;;;5011509;28;19928;-76
2022/09/20 01:51:01;;;;;;;;;;;7.80;99.90;;;;;;5011468;28;19935;-75
2022/09/20 01:53:26;;;;;;;;;;;7.80;99.90;;;;;;5011486;28;20020;-75
2022/09/20 01:56:01;;;;;;;;;;;7.80;99.90;;;;;;5011201;28;20008;-75
2022/09/20 01:58:41;;;;;;;;;;;7.80;99.90;;;;;;5010947;28;20372;-78
2022/09/20 02:01:22;;;;;;;;;;;7.80;99.90;;;;;;5010225;28;19925;-75
2022/09/20 02:03:53;;;;;;;;;;;7.70;99.90;;;;;;5011026;28;20403;-80
2022/09/20 02:06:23;;;;;;;;;;;7.70;99.90;;;;;;5011288;28;19925;-75
2022/09/20 02:09:01;;;;;;;;;;;7.70;99.90;;;;;;5011276;28;20660;-76
2022/09/20 02:11:40;;;;;;;;;;;7.70;99.90;;;;;;5011168;28;20372;-75
2022/09/20 02:14:27;;;;;;;;;;;7.60;99.90;;;;;;5010833;28;19922;-75
2022/09/20 02:17:00;;;;;;;;;;;7.60;99.90;;;;;;5011439;28;19926;-75
2022/09/20 02:19:45;;;;;;;;;;;7.80;99.90;;;;;;5010995;28;20383;-74
2022/09/20 02:22:28;;;;;;;;;;;7.60;99.90;;;;;;5011053;28;19922;-76
2022/09/20 02:25:09;;;;;;;;;;;7.60;99.90;;;;;;5010946;28;19987;-76
2022/09/20 02:27:34;;;;;;;;;;;7.60;99.90;;;;;;5010650;28;19968;-75
2022/09/20 02:30:03;;;;;;;;;;;7.60;99.90;;;;;;5012928;28;19929;-76
2022/09/20 02:32:45;;;;;;;;;;;7.60;99.90;;;;;;5014833;28;19929;-80
2022/09/20 02:35:23;;;;;;;;;;;7.60;99.90;;;;;;5014449;28;19925;-75
2022/09/20 02:37:48;;;;;;;;;;;7.60;99.90;;;;;;5014524;28;20387;-77
2022/09/20 02:40:17;;;;;;;;;;;7.60;99.90;;;;;;5014487;28;19922;-85
2022/09/20 02:42:43;;;;;;;;;;;7.70;99.90;;;;;;5014271;28;19975;-75
2022/09/20 02:45:21;;;;;;;;;;;7.60;99.90;;;;;;5014281;28;19929;-75
2022/09/20 02:47:47;;;;;;;;;;;7.70;99.90;;;;;;5013151;28;19968;-75
2022/09/20 02:50:21;;;;;;;;;;;7.70;99.90;;;;;;5014707;28;19917;-74
2022/09/20 02:53:06;;;;;;;;;;;7.70;99.90;;;;;;5014083;28;20510;-75
2022/09/20 02:55:31;;;;;;;;;;;7.70;99.90;;;;;;5012888;28;19929;-74
2022/09/20 02:58:04;;;;;;;;;;;7.80;99.90;;;;;;5014443;28;19921;-76
2022/09/20 03:00:41;;;;;;;;;;;7.80;99.90;;;;;;5013692;28;19993;-76
2022/09/20 03:03:12;;;;;;;;;;;7.80;99.90;;;;;;5014014;28;20407;-74
2022/09/20 03:05:37;;;;;;;;;;;7.90;99.90;;;;;;5012448;28;19925;-75
2022/09/20 03:08:14;;;;;;;;;;;7.90;99.90;;;;;;5013852;28;19941;-75
2022/09/20 03:10:58;;;;;;;;;;;7.90;99.90;;;;;;5014138;28;20316;-75
2022/09/20 03:13:42;;;;;;;;;;;8.00;99.90;;;;;;5014000;28;19932;-74
2022/09/20 03:16:25;;;;;;;;;;;8.10;99.90;;;;;;5013567;28;19975;-74
2022/09/20 03:18:53;;;;;;;;;;;8.10;99.90;;;;;;5013976;28;19929;-75
2022/09/20 03:21:21;;;;;;;;;;;8.10;99.90;;;;;;5013751;28;19925;-80
2022/09/20 03:23:59;;;;;;;;;;;8.10;99.90;;;;;;5013691;28;20016;-85
2022/09/20 03:26:24;;;;;;;;;;;8.20;99.90;;;;;;5013692;28;19925;-75
2022/09/20 03:28:58;;;;;;;;;;;8.40;99.90;;;;;;5013334;28;19926;-75
2022/09/20 03:31:36;;;;;;;;;;;8.30;99.90;;;;;;5013654;28;19926;-83
2022/09/20 03:34:04;;;;;;;;;;;8.30;99.90;;;;;;5013362;28;19944;-75
2022/09/20 03:36:56;;;;;;;;;;;8.40;99.90;;;;;;5012283;28;19928;-80
2022/09/20 03:39:34;;;;;;;;;;;8.40;99.90;;;;;;5013115;28;20004;-83
2022/09/20 03:41:59;;;;;;;;;;;8.50;99.90;;;;;;5013562;28;19933;-81
2022/09/20 03:45:00;;;;;;;;;;;8.50;99.90;;;;;;5012031;28;20386;-75
2022/09/20 03:47:35;;;;;;;;;;;8.60;99.90;;;;;;4952082;29;20744;-74
2022/09/20 03:50:06;;;;;;;;;;;8.60;99.90;;;;;;4952548;29;20020;-74
2022/09/20 03:52:35;;;;;;;;;;;8.70;99.90;;;;;;4952492;29;19926;-74
2022/09/20 03:55:02;;;;;;;;;;;8.80;99.90;;;;;;4952289;29;19946;-78
2022/09/20 03:57:47;;;;;;;;;;;8.80;99.90;;;;;;4952483;29;20720;-82
2022/09/20 04:00:19;;;;;;;;;;;8.80;99.90;;;;;;4952426;29;20028;-78
2022/09/20 04:02:45;;;;;;;;;;;8.90;99.90;;;;;;4951805;29;19922;-75
2022/09/20 04:05:20;;;;;;;;;;;8.90;99.90;;;;;;4952286;29;19928;-75
2022/09/20 04:07:57;;;;;;;;;;;8.90;99.90;;;;;;4952322;29;19970;-85
2022/09/20 04:10:32;;;;;;;;;;;8.90;99.90;;;;;;4952428;29;19965;-74
2022/09/20 04:13:11;;;;;;;;;;;9.00;99.90;;;;;;4936174;29;19926;-75
2022/09/20 04:15:45;;;;;;;;;;;8.90;99.90;;;;;;4951830;29;20328;-77
2022/09/20 04:18:29;;;;;;;;;;;9.00;99.90;;;;;;4952008;29;20318;-82
2022/09/20 04:21:00;;;;;;;;;;;9.00;99.90;;;;;;4969020;28;19925;-75
2022/09/20 04:23:44;;;;;;;;;;;9.00;99.90;;;;;;5012493;28;19929;-75
2022/09/20 04:26:10;;;;;;;;;;;9.00;99.90;;;;;;5011113;28;19921;-76
2022/09/20 04:28:41;;;;;;;;;;;9.10;99.90;;;;;;5011033;28;19928;-75
2022/09/20 04:31:34;;;;;;;;;;;9.10;99.90;;;;;;5012421;28;19964;-75
2022/09/20 04:34:00;;;;;;;;;;;9.10;99.90;;;;;;4951263;29;19927;-77
2022/09/20 04:36:35;;;;;;;;;;;9.20;99.90;;;;;;4951475;29;19929;-75
2022/09/20 04:39:00;;;;;;;;;;;9.20;99.90;;;;;;4951705;29;20440;-78
2022/09/20 04:41:29;;;;;;;;;;;9.20;99.90;;;;;;4951522;29;19922;-79
2022/09/20 04:44:03;;;;;;;;;;;9.20;99.90;;;;;;4951172;29;19973;-77
2022/09/20 04:46:35;;;;;;;;;;;9.30;99.90;;;;;;4935457;29;20409;-80
2022/09/20 04:49:14;;;;;;;;;;;9.30;99.90;;;;;;4951470;29;19970;-75
2022/09/20 04:51:39;;;;;;;;;;;9.20;99.90;;;;;;4950344;28;20018;-75
2022/09/20 04:54:14;;;;;;;;;;;9.30;99.90;;;;;;4951343;29;19990;-75
2022/09/20 04:56:49;;;;;;;;;;;9.30;99.90;;;;;;4951218;29;19926;-74
2022/09/20 04:59:26;;;;;;;;;;;9.30;99.90;;;;;;4951185;29;19933;-77
2022/09/20 05:02:14;;;;;;;;;;;9.30;99.90;;;;;;4951272;29;19937;-80
2022/09/20 05:05:02;;;;;;;;;;;9.30;99.90;;;;;;4875651;29;19928;-79
2022/09/20 05:07:46;;;;;;;;;;;9.30;99.90;;;;;;4875445;29;20004;-75
2022/09/20 05:10:13;;;;;;;;;;;9.40;99.90;;;;;;4884894;29;19927;-76
2022/09/20 05:12:47;;;;;;;;;;;9.40;99.90;;;;;;4912976;29;19925;-84
2022/09/20 05:15:13;;;;;;;;;;;9.40;99.90;;;;;;4912993;29;19929;-74
2022/09/20 05:17:50;;;;;;;;;;;9.40;99.90;;;;;;4912906;29;20029;-74
2022/09/20 05:20:36;;;;;;;;;;;9.50;99.90;;;;;;4912855;29;20308;-88
2022/09/20 05:23:02;;;;;;;;;;;9.50;99.90;;;;;;4912427;29;19933;-81
2022/09/20 05:25:37;;;;;;;;;;;9.50;99.90;;;;;;4912871;29;20009;-79
2022/09/20 05:28:09;;;;;;;;;;;9.60;99.90;;;;;;4912586;29;19931;-75
2022/09/20 05:30:38;;;;;;;;;;;9.70;99.90;;;;;;4912772;29;20495;-76
2022/09/20 05:33:11;;;;;;;;;;;9.70;99.90;;;;;;4896789;29;19926;-75
2022/09/20 05:36:03;;;;;;;;;;;9.70;99.90;;;;;;4912741;29;20401;-75
2022/09/20 05:38:35;;;;;;;;;;;9.80;99.90;;;;;;4893410;29;19924;-79
2022/09/20 05:41:17;;;;;;;;;;;9.90;99.90;;;;;;4914762;28;19976;-74
2022/09/20 05:43:48;;;;;;;;;;;10.00;99.90;;;;;;4989224;28;19930;-74
2022/09/20 05:46:26;;;;;;;;;;;9.90;99.90;;;;;;4972962;28;19926;-78
2022/09/20 05:48:56;;;;;;;;;;;10.00;99.90;;;;;;4989098;28;19921;-74
2022/09/20 05:51:21;;;;;;;;;;;10.00;99.90;;;;;;4989134;28;19928;-74
2022/09/20 05:53:55;;;;;;;;;;;10.10;99.90;;;;;;4988680;28;20087;-75
2022/09/20 05:56:26;;;;;;;;;;;10.10;99.90;;;;;;4989124;28;19960;-75
2022/09/20 05:59:11;;;;;;;;;;;10.10;99.90;;;;;;4989048;28;19937;-74
2022/09/20 06:01:39;;;;;;;;;;;10.10;99.90;;;;;;4972632;28;20407;-75
2022/09/20 06:04:06;;;;;;;;;;;10.10;99.90;;;;;;4991907;28;19975;-76
2022/09/20 06:06:37;;;;;;;;;;;10.10;99.90;;;;;;4993126;28;19949;-74
2022/09/20 06:09:05;;;;;;;;;;;10.10;99.90;;;;;;4992508;28;19922;-81
2022/09/20 06:11:42;;;;;;;;;;;10.10;99.90;;;;;;4992994;28;19965;-74
2022/09/20 06:14:28;;;;;;;;;;;10.10;99.90;;;;;;4993119;28;19937;-74
2022/09/20 06:17:13;;;;;;;;;;;10.20;99.90;;;;;;5014958;28;19932;-77
2022/09/20 06:19:45;;;;;;;;;;;10.20;99.90;;;;;;5014812;28;20671;-73
2022/09/20 06:22:14;;;;;;;;;;;10.20;99.90;;;;;;5014788;28;19921;-74
2022/09/20 06:25:03;;;;;;;;;;;10.20;99.90;;;;;;5014433;28;19976;-77
2022/09/20 06:27:31;;;;;;;;;;;10.30;99.90;;;;;;4953943;28;19922;-75
2022/09/20 06:29:59;;;;;;;;;;;10.30;99.90;;;;;;4954373;29;19938;-73
2022/09/20 06:32:26;;;;;;;;;;;10.30;99.90;;;;;;4954007;29;19926;-74
2022/09/20 06:34:52;;;;;;;;;;;10.30;99.90;;;;;;4921935;29;19962;-75
2022/09/20 06:43:03;;;;;;;;;;;10.40;99.90;;;;;;4953686;29;19922;-82
2022/09/20 06:45:30;;;;;;;;;;;10.40;99.90;;;;;;4937659;29;20348;-76
2022/09/20 06:47:56;;;;;;;;;;;10.60;99.90;;;;;;4953662;29;19923;-75
2022/09/20 06:50:21;;;;;;;;;;;10.50;99.90;;;;;;4937825;29;19929;-74
2022/09/20 06:52:48;;;;;;;;;;;10.60;99.90;;;;;;4937465;29;19981;-74
2022/09/20 06:55:17;;;;;;;;;;;10.60;99.90;;;;;;4921426;29;20382;-79
2022/09/20 06:57:43;;;;;;;;;;;10.70;99.90;;;;;;4953383;29;19966;-73
2022/09/20 07:00:11;;;;;;;;;;;10.70;99.90;;;;;;4953366;29;20737;-78
2022/09/20 07:02:36;;;;;;;;;;;10.80;99.90;;;;;;4953295;29;19918;-77
2022/09/20 07:05:02;;;;;;;;;;;10.90;99.90;;;;;;4997097;28;19933;-75
2022/09/20 07:07:27;;;;;;;;;;;10.90;99.90;;;;;;5013970;28;19921;-75
2022/09/20 07:09:53;;;;;;;;;;;11.00;99.90;;;;;;5014058;28;19925;-75
2022/09/20 07:12:20;;;;;;;;;;;11.10;99.90;;;;;;5013743;28;19945;-76
2022/09/20 07:14:45;;;;;;;;;;;11.10;99.90;;;;;;5013297;28;19925;-75
2022/09/20 07:17:12;;;;;;;;;;;11.20;99.90;;;;;;5013908;28;19925;-75
2022/09/20 07:19:37;;;;;;;;;;;11.30;99.90;;;;;;5013724;28;19975;-73
2022/09/20 07:22:03;;;;;;;;;;;11.30;99.90;;;;;;5013637;28;20000;-75
2022/09/20 07:24:31;;;;;;;;;;;11.40;99.90;;;;;;5013738;28;19925;-76
2022/09/20 07:27:00;;;;;;;;;;;11.70;99.90;;;;;;5013372;28;20387;-78
2022/09/20 07:29:27;;;;;;;;;;;11.50;99.90;;;;;;5013776;28;20003;-76
2022/09/20 07:31:52;;;;;;;;;;;11.60;99.90;;;;;;5013761;28;19925;-75
2022/09/20 07:34:19;;;;;;;;;;;11.60;99.90;;;;;;5013630;28;19928;-74
2022/09/20 07:36:49;;;;;;;;;;;11.60;99.90;;;;;;5013417;28;19925;-80
2022/09/20 07:39:15;;;;;;;;;;;11.70;99.90;;;;;;5013687;28;19940;-79
2022/09/20 07:41:40;;;;;;;;;;;11.60;99.90;;;;;;5013427;28;20384;-72
2022/09/20 07:44:23;;;;;;;;;;;11.60;99.90;;;;;;5012946;28;20285;-75
2022/09/20 07:46:50;;;;;;;;;;;11.70;99.90;;;;;;5013157;28;20016;-75
2022/09/20 07:49:16;;;;;;;;;;;11.90;99.90;;;;;;5013327;28;19928;-84
2022/09/20 07:51:41;;;;;;;;;;;11.90;99.90;;;;;;5013111;28;19921;-76
2022/09/20 07:54:07;;;;;;;;;;;12.00;99.90;;;;;;5013066;28;19927;-79
2022/09/20 07:56:32;;;;;;;;;;;12.10;99.90;;;;;;5013315;28;19930;-74
2022/09/20 07:58:58;;;;;;;;;;;12.20;99.90;;;;;;5012983;28;19925;-73
2022/09/20 08:01:23;;;;;;;;;;;12.30;99.90;;;;;;5012936;28;20269;-74
2022/09/20 08:03:49;;;;;;;;;;;12.40;99.90;;;;;;5011641;28;19925;-74
2022/09/20 08:06:15;;;;;;;;;;;12.50;99.90;;;;;;5012780;28;19926;-77
2022/09/20 08:08:41;;;;;;;;;;;12.60;99.90;;;;;;5011349;28;19921;-76
2022/09/20 08:11:09;;;;;;;;;;;12.60;99.90;;;;;;5012978;28;19925;-78
2022/09/20 08:13:35;;;;;;;;;;;12.80;99.90;;;;;;5012522;28;19925;-77
2022/09/20 08:16:02;;;;;;;;;;;12.90;99.90;;;;;;5012774;28;19926;-73
2022/09/20 08:18:28;;;;;;;;;;;13.00;99.90;;;;;;5012765;28;19925;-74
2022/09/20 08:20:54;;;;;;;;;;;13.20;99.90;;;;;;5011249;28;19929;-79
2022/09/20 08:23:19;;;;;;;;;;;13.30;99.90;;;;;;5012793;28;19968;-77
2022/09/20 08:25:47;;;;;;;;;;;13.50;99.90;;;;;;5012248;28;19979;-75
2022/09/20 08:28:12;;;;;;;;;;;13.70;99.90;;;;;;5011606;28;19929;-76
2022/09/20 08:30:38;;;;;;;;;;;13.90;99.90;;;;;;5010873;28;20682;-77
2022/09/20 08:33:05;;;;;;;;;;;14.10;99.90;;;;;;5012580;28;19987;-78
2022/09/20 08:35:33;;;;;;;;;;;14.30;99.90;;;;;;5011133;28;19922;-83
2022/09/20 08:37:59;;;;;;;;;;;14.60;99.90;;;;;;5012291;28;19921;-76
2022/09/20 08:40:25;;;;;;;;;;;14.80;99.90;;;;;;5012219;28;19932;-81
2022/09/20 08:42:53;;;;;;;;;;;15.00;99.90;;;;;;5012278;28;20284;-83
2022/09/20 08:45:20;;;;;;;;;;;15.30;99.90;;;;;;5011939;28;20386;-76
2022/09/20 08:48:06;;;;;;;;;;;15.50;99.90;;;;;;5012362;28;19922;-76
2022/09/20 08:50:33;;;;;;;;;;;15.70;99.90;;;;;;5011977;28;20025;-76
2022/09/20 08:53:03;;;;;;;;;;;15.90;99.90;;;;;;5012164;28;19928;-76
2022/09/20 08:55:33;;;;;;;;;;;16.10;99.90;;;;;;5012215;28;19917;-75
2022/09/20 08:57:59;;;;;;;;;;;16.30;99.90;;;;;;5011994;28;20278;-79
2022/09/20 09:00:35;;;;;;;;;;;16.50;99.90;;;;;;5011581;28;19921;-80
2022/09/20 09:03:05;;;;;;;;;;;16.70;99.90;;;;;;5011944;28;20341;-77
2022/09/20 09:05:30;;;;;;;;;;;16.70;99.90;;;;;;5010658;28;19973;-75
2022/09/20 09:07:59;;;;;;;;;;;16.80;99.90;;;;;;5011809;28;19967;-76
2022/09/20 09:10:33;;;;;;;;;;;16.80;99.90;;;;;;5011850;28;20344;-77
2022/09/20 09:12:59;;;;;;;;;;;16.80;99.90;;;;;;5011825;28;19932;-77
2022/09/20 09:15:31;;;;;;;;;;;16.70;99.90;;;;;;5011706;28;20389;-77
2022/09/20 09:17:57;;;;;;;;;;;16.60;99.90;;;;;;5011613;28;19921;-79
2022/09/20 09:20:22;;;;;;;;;;;16.50;99.90;;;;;;5011870;28;19933;-81
2022/09/20 09:22:59;;;;;;;;;;;16.40;99.90;;;;;;5011757;28;20257;-75
2022/09/20 09:25:33;;;;;;;;;;;16.30;99.90;;;;;;5010170;28;20397;-76
2022/09/20 09:28:00;;;;;;;;;;;16.30;99.90;;;;;;5011378;28;19921;-82
2022/09/20 09:30:30;;;;;;;;;;;16.20;99.90;;;;;;5011425;28;19925;-80
2022/09/20 09:33:31;;;;;;;;;;;16.00;99.90;;;;;;5011333;28;19922;-77
2022/09/20 09:35:58;;;;;;;;;;;15.90;99.90;;;;;;4950795;29;19938;-76
2022/09/20 09:38:29;;;;;;;;;;;15.80;99.90;;;;;;4950294;28;20409;-77
2022/09/20 09:41:01;;;;;;;;;;;15.80;99.90;;;;;;4950841;29;19926;-80
2022/09/20 09:43:29;;;;;;;;;;;15.70;99.90;;;;;;4950936;29;19984;-76
2022/09/20 09:46:15;;;;;;;;;;;15.50;99.90;;;;;;4950854;29;20333;-75
2022/09/20 09:48:41;;;;;;;;;;;15.50;99.90;;;;;;4950277;29;19922;-77
2022/09/20 09:51:11;;;;;;;;;;;15.40;99.90;;;;;;4950483;29;20290;-76
2022/09/20 09:53:38;;;;;;;;;;;15.40;99.90;;;;;;4950464;29;20103;-76
2022/09/20 09:56:22;;;;;;;;;;;15.40;99.90;;;;;;4950558;29;20441;-75
2022/09/20 09:59:00;;;;;;;;;;;15.50;99.90;;;;;;4950444;29;19926;-76
2022/09/20 10:01:44;;;;;;;;;;;15.50;99.90;;;;;;4950499;29;19926;-76
2022/09/20 10:04:32;;;;;;;;;;;15.60;99.90;;;;;;4950057;29;20342;-75
2022/09/20 10:07:07;;;;;;;;;;;15.60;99.90;;;;;;4950194;29;20393;-75
2022/09/20 10:09:40;;;;;;;;;;;15.60;99.90;;;;;;4971153;28;19921;-75
2022/09/20 10:12:16;;;;;;;;;;;15.70;99.90;;;;;;5011132;28;19925;-75
2022/09/20 10:14:45;;;;;;;;;;;15.70;99.90;;;;;;5010927;28;19921;-76
2022/09/20 10:17:11;;;;;;;;;;;15.80;99.90;;;;;;5011247;28;19952;-76
2022/09/20 10:19:39;;;;;;;;;;;15.90;99.90;;;;;;5010858;28;19925;-76
2022/09/20 10:22:16;;;;;;;;;;;16.00;99.90;;;;;;5010926;28;19961;-80
2022/09/20 10:25:00;;;;;;;;;;;15.90;99.90;;;;;;5010811;28;19928;-79
2022/09/20 10:27:33;;;;;;;;;;;16.10;99.90;;;;;;5011034;28;20396;-75
2022/09/20 10:30:08;;;;;;;;;;;16.20;99.90;;;;;;5010943;28;20021;-86
2022/09/20 10:32:38;;;;;;;;;;;16.30;99.90;;;;;;5011064;28;19925;-76
2022/09/20 10:35:13;;;;;;;;;;;16.40;99.90;;;;;;5010465;28;19925;-76
2022/09/20 10:37:57;;;;;;;;;;;16.80;99.90;;;;;;5010737;28;19925;-75
2022/09/20 10:43:13;;;;;;;;;;;17.20;99.90;;;;;;5010844;28;20016;-84
2022/09/20 10:43:21;;;;;;;;;;;17.60;99.90;;;;;;5010688;28;19983;-75
2022/09/20 10:46:06;;;;;;;;;;;17.90;99.90;;;;;;5010627;28;19925;-77
2022/09/20 10:48:39;;;;;;;;;;;18.10;99.90;;;;;;5010661;28;20388;-80
2022/09/20 10:51:14;;;;;;;;;;;18.30;99.90;;;;;;5013158;28;19976;-85
2022/09/20 10:53:45;;;;;;;;;;;18.60;99.90;;;;;;5014380;28;20003;-77
2022/09/20 10:56:14;;;;;;;;;;;18.90;99.90;;;;;;5014251;28;19928;-78
2022/09/20 10:58:50;;;;;;;;;;;18.80;99.90;;;;;;5012930;28;20475;-77
2022/09/20 11:01:24;;;;;;;;;;;19.00;99.90;;;;;;5014323;28;19928;-76
2022/09/20 11:04:19;;;;;;;;;;;19.10;99.90;;;;;;5014104;28;19925;-77
2022/09/20 11:06:48;;;;;;;;;;;19.20;99.90;;;;;;5000368;28;19994;-75
2022/09/20 11:09:16;;;;;;;;;;;19.40;99.90;;;;;;5012803;28;20015;-76
2022/09/20 11:11:44;;;;;;;;;;;19.40;99.90;;;;;;5013253;28;19921;-78
2022/09/20 11:14:12;;;;;;;;;;;19.10;99.90;;;;;;5014260;28;19925;-76
2022/09/20 11:16:42;;;;;;;;;;;19.20;99.90;;;;;;5013848;28;19963;-87
2022/09/20 11:19:25;;;;;;;;;;;19.20;99.90;;;;;;5012796;28;19928;-79
2022/09/20 11:21:54;;;;;;;;;;;18.90;99.90;;;;;;5013349;28;19921;-78
2022/09/20 11:24:31;;;;;;;;;;;18.70;99.90;;;;;;5013755;28;19928;-75
2022/09/20 11:27:04;;;;;;;;;;;18.50;99.90;;;;;;5013711;28;19921;-78
2022/09/20 11:29:40;;;;;;;;;;;18.30;99.90;;;;;;5012242;28;19968;-76
2022/09/20 11:32:13;;;;;;;;;;;18.30;99.90;;;;;;5013459;28;19925;-77
2022/09/20 11:34:54;;;;;;;;;;;18.20;99.90;;;;;;5013807;28;19921;-82
2022/09/20 11:37:20;;;;;;;;;;;18.20;99.90;;;;;;5013127;28;20705;-79
2022/09/20 11:39:49;;;;;;;;;;;18.20;99.90;;;;;;5013456;28;19932;-77
2022/09/20 11:42:35;;;;;;;;;;;18.00;99.90;;;;;;5013391;28;20459;-76
2022/09/20 11:45:01;;;;;;;;;;;17.90;99.90;;;;;;5012785;28;19924;-77
2022/09/20 11:47:30;;;;;;;;;;;17.90;99.90;;;;;;5013371;28;19929;-75
2022/09/20 11:50:08;;;;;;;;;;;18.00;99.90;;;;;;5013283;28;20476;-85
2022/09/20 11:52:40;;;;;;;;;;;18.30;99.90;;;;;;5012867;28;20395;-76
2022/09/20 11:55:14;;;;;;;;;;;18.60;99.90;;;;;;5013158;28;20405;-76
2022/09/20 11:57:39;;;;;;;;;;;18.50;99.90;;;;;;5012083;28;19975;-77
2022/09/20 12:00:07;;;;;;;;;;;18.80;99.90;;;;;;5013081;28;19926;-76
2022/09/20 12:02:35;;;;;;;;;;;18.70;99.10;;;;;;5013130;28;20376;-76
2022/09/20 12:05:02;;;;;;;;;;;18.70;99.30;;;;;;5013216;28;20420;-79
2022/09/20 12:07:38;;;;;;;;;;;19.00;99.70;;;;;;5012973;28;20389;-76
2022/09/20 12:10:07;;;;;;;;;;;19.20;97.70;;;;;;5012598;28;20344;-82
2022/09/20 12:12:42;;;;;;;;;;;19.40;97.90;;;;;;5012958;28;19929;-82
2022/09/20 12:15:24;;;;;;;;;;;19.50;98.40;;;;;;5013018;28;19925;-75
2022/09/20 12:17:51;;;;;;;;;;;19.60;99.90;;;;;;5011515;28;19976;-81
2022/09/20 12:20:33;;;;;;;;;;;19.20;97.90;;;;;;5012702;28;19925;-80
2022/09/20 12:23:17;;;;;;;;;;;18.90;97.60;;;;;;5012850;28;19925;-78
2022/09/20 12:25:59;;;;;;;;;;;18.60;97.20;;;;;;5012253;28;19972;-80
2022/09/20 12:28:32;;;;;;;;;;;18.50;98.30;;;;;;5012308;28;20659;-80
2022/09/20 12:31:16;;;;;;;;;;;18.20;97.20;;;;;;5011043;28;19928;-76
2022/09/20 12:33:56;;;;;;;;;;;18.10;97.20;;;;;;5012505;28;19980;-76
2022/09/20 12:36:22;;;;;;;;;;;18.20;99.10;;;;;;5012375;28;19931;-76
2022/09/20 12:38:56;;;;;;;;;;;18.20;99.10;;;;;;5012498;28;19928;-76
2022/09/20 12:41:22;;;;;;;;;;;18.50;98.90;;;;;;5011640;28;20025;-79
2022/09/20 12:43:51;;;;;;;;;;;18.90;99.90;;;;;;5011013;28;20669;-75
2022/09/20 12:46:21;;;;;;;;;;;18.60;98.70;;;;;;5012145;28;19921;-76
2022/09/20 12:48:47;;;;;;;;;;;18.50;98.90;;;;;;5012330;28;20381;-76
2022/09/20 12:54:07;;;;;;;;;;;18.20;97.60;;;;;;5011849;28;20377;-75
2022/09/20 12:56:35;;;;;;;;;;;18.20;98.50;;;;;;5011759;28;19929;-78
2022/09/20 12:59:04;;;;;;;;;;;18.20;98.70;;;;;;5010723;28;19969;-76
2022/09/20 13:01:35;;;;;;;;;;;18.50;99.90;;;;;;5011978;28;20009;-76
2022/09/20 13:04:21;;;;;;;;;;;18.70;99.90;;;;;;5011927;28;19931;-76
2022/09/20 13:06:48;;;;;;;;;;;18.80;99.30;;;;;;5010903;28;19987;-81
2022/09/20 13:09:14;;;;;;;;;;;18.80;97.90;;;;;;5011952;28;19932;-76
2022/09/20 13:11:47;;;;;;;;;;;19.00;99.00;;;;;;5010177;28;20033;-81
2022/09/20 13:14:21;;;;;;;;;;;19.20;98.30;;;;;;5011305;28;20316;-75
2022/09/20 13:16:51;;;;;;;;;;;19.30;97.70;;;;;;5011696;28;19929;-76
2022/09/20 13:19:28;;;;;;;;;;;19.40;98.50;;;;;;5010333;28;19972;-76
2022/09/20 13:21:59;;;;;;;;;;;19.50;98.20;;;;;;5011763;28;20288;-76
2022/09/20 13:24:27;;;;;;;;;;;19.40;95.90;;;;;;5011604;28;19931;-78
2022/09/20 13:26:55;;;;;;;;;;;19.20;95.30;;;;;;5010443;28;20315;-79
2022/09/20 13:29:32;;;;;;;;;;;19.20;98.10;;;;;;5011781;28;20368;-79
2022/09/20 13:32:17;;;;;;;;;;;19.50;98.30;;;;;;4993735;28;20035;-80
2022/09/20 13:34:44;;;;;;;;;;;19.40;96.70;;;;;;5011587;28;19971;-78
2022/09/20 13:37:22;;;;;;;;;;;19.40;99.90;;;;;;5011211;28;20392;-79
2022/09/20 13:39:52;;;;;;;;;;;19.30;99.70;;;;;;5037729;22;19920;-79
2022/09/20 13:42:20;;;;;;;;;;;19.40;99.90;;;;;;5032575;28;19974;-78
2022/09/20 13:44:47;;;;;;;;;;;19.30;99.90;;;;;;5032988;28;19925;-77
2022/09/20 13:47:23;;;;;;;;;;;19.30;99.50;;;;;;5051064;28;20007;-81
2022/09/20 13:49:49;;;;;;;;;;;19.20;99.90;;;;;;5032834;28;19927;-81
2022/09/20 13:52:22;;;;;;;;;;;19.20;99.90;;;;;;5050787;28;19924;-80
2022/09/20 13:54:48;;;;;;;;;;;19.50;99.90;;;;;;5032879;28;19920;-77
2022/09/20 13:57:18;;;;;;;;;;;19.60;99.30;;;;;;5032702;28;19928;-79
2022/09/20 13:59:45;;;;;;;;;;;19.60;99.50;;;;;;5050846;28;19925;-83
2022/09/20 14:02:19;;;;;;;;;;;19.90;99.70;;;;;;5032855;28;20630;-77
2022/09/20 14:04:45;;;;;;;;;;;20.10;99.40;;;;;;5050545;28;20717;-78
2022/09/20 14:07:12;;;;;;;;;;;19.90;98.70;;;;;;5050702;28;19925;-82
2022/09/20 14:09:38;;;;;;;;;;;19.70;98.30;;;;;;5050970;28;19964;-77
2022/09/20 14:12:04;;;;;;;;;;;19.50;98.10;;;;;;5051098;28;19972;-77
2022/09/20 14:14:30;;;;;;;;;;;19.10;98.60;;;;;;5032786;28;20038;-77
2022/09/20 14:16:56;;;;;;;;;;;18.90;98.20;;;;;;5050729;28;20047;-76
2022/09/20 14:19:25;;;;;;;;;;;18.80;98.40;;;;;;5050491;28;20553;-79
2022/09/20 14:21:51;;;;;;;;;;;18.80;98.40;;;;;;5050630;28;19979;-77
2022/09/20 14:24:25;;;;;;;;;;;18.80;98.90;;;;;;5050389;28;19925;-77
2022/09/20 14:27:02;;;;;;;;;;;18.80;99.00;;;;;;5052824;28;20351;-85
2022/09/20 14:29:38;;;;;;;;;;;18.80;98.60;;;;;;5054049;28;19925;-78
2022/09/20 14:32:22;;;;;;;;;;;18.80;97.70;;;;;;5054394;28;19925;-78
2022/09/20 14:34:48;;;;;;;;;;;18.70;97.90;;;;;;5054076;28;19924;-83
2022/09/20 14:37:13;;;;;;;;;;;18.60;99.00;;;;;;5036603;28;19944;-81
2022/09/20 14:39:50;;;;;;;;;;;18.40;98.70;;;;;;5053956;28;20295;-79
2022/09/20 14:42:20;;;;;;;;;;;18.40;98.90;;;;;;5054330;28;19925;-77
2022/09/20 14:44:49;;;;;;;;;;;18.50;99.60;;;;;;5019488;28;19925;-76
2022/09/20 14:47:17;;;;;;;;;;;18.80;99.40;;;;;;5053988;28;19927;-85
2022/09/20 14:49:43;;;;;;;;;;;18.70;98.90;;;;;;5054019;28;20348;-78
2022/09/20 14:52:28;;;;;;;;;;;18.50;99.00;;;;;;5054026;28;20019;-81
2022/09/20 14:55:12;;;;;;;;;;;18.50;99.90;;;;;;5054138;28;19936;-78
2022/09/20 14:57:38;;;;;;;;;;;18.60;99.90;;;;;;5054079;28;19924;-79